RYR8VP EGPH-EICK
Flight info
| Callsign | RYR8VP |
|---|---|
| Flight time | 0h 51m |
| Altitude | 34000 |
| Route | GOSAM DCT TRN DCT NELBO DCT NIMAT DCT DUB DCT TISMO TISMO1R |
| Aircraft | B738/M-SDE2E3FGHIRWXY/LB1 |
Departure
| Time | 2026-04-24 09:16 |
|---|---|
| Airport | Edinburgh Airport (EGPH) |
Arrival
| Time | 2026-04-24 10:07 |
|---|---|
| Airport | Cork International Airport (EICK) |
| Time | Latitude | Longitude | Altitude | Speed | Heading |
|---|---|---|---|---|---|
| 2026-04-24 08:43 | 55.94612 | -3.36630 | 115 ft | 0 kts | 89° |
| 2026-04-24 09:03 | 55.94612 | -3.36638 | 115 ft | 3 kts | 88° |
| 2026-04-24 09:03 | 55.94608 | -3.36685 | 115 ft | 4 kts | 69° |
| 2026-04-24 09:03 | 55.94595 | -3.36723 | 115 ft | 4 kts | 31° |
| 2026-04-24 09:04 | 55.94578 | -3.36733 | 115 ft | 1 kts | 359° |
| 2026-04-24 09:04 | 55.94575 | -3.36733 | 115 ft | 0 kts | 359° |
| 2026-04-24 09:08 | 55.94583 | -3.36732 | 115 ft | 3 kts | 1° |
| 2026-04-24 09:09 | 55.94609 | -3.36732 | 115 ft | 5 kts | 360° |
| 2026-04-24 09:09 | 55.94642 | -3.36733 | 115 ft | 3 kts | 356° |
| 2026-04-24 09:09 | 55.94643 | -3.36733 | 115 ft | 1 kts | 356° |
| 2026-04-24 09:09 | 55.94672 | -3.36734 | 115 ft | 8 kts | 359° |
| 2026-04-24 09:10 | 55.94744 | -3.36743 | 115 ft | 12 kts | 341° |
| 2026-04-24 09:10 | 55.94819 | -3.36776 | 115 ft | 11 kts | 358° |
| 2026-04-24 09:10 | 55.94894 | -3.36801 | 112 ft | 11 kts | 332° |
| 2026-04-24 09:10 | 55.94960 | -3.36788 | 114 ft | 11 kts | 50° |
| 2026-04-24 09:11 | 55.94999 | -3.36678 | 113 ft | 10 kts | 60° |
| 2026-04-24 09:11 | 55.95036 | -3.36570 | 112 ft | 10 kts | 58° |
| 2026-04-24 09:11 | 55.95071 | -3.36464 | 115 ft | 10 kts | 59° |
| 2026-04-24 09:11 | 55.95106 | -3.36363 | 114 ft | 10 kts | 61° |
| 2026-04-24 09:12 | 55.95139 | -3.36262 | 113 ft | 9 kts | 58° |
| 2026-04-24 09:12 | 55.95174 | -3.36158 | 115 ft | 11 kts | 59° |
| 2026-04-24 09:12 | 55.95217 | -3.36033 | 115 ft | 13 kts | 58° |
| 2026-04-24 09:12 | 55.95266 | -3.35890 | 111 ft | 14 kts | 59° |
| 2026-04-24 09:13 | 55.95318 | -3.35734 | 113 ft | 15 kts | 59° |
| 2026-04-24 09:13 | 55.95369 | -3.35583 | 114 ft | 14 kts | 58° |
| 2026-04-24 09:13 | 55.95422 | -3.35441 | 115 ft | 13 kts | 52° |
| 2026-04-24 09:13 | 55.95478 | -3.35424 | 115 ft | 7 kts | 326° |
| 2026-04-24 09:14 | 55.95496 | -3.35444 | 113 ft | 0 kts | 328° |
| 2026-04-24 09:14 | 55.95497 | -3.35444 | 113 ft | 0 kts | 328° |
| 2026-04-24 09:14 | 55.95508 | -3.35454 | 113 ft | 4 kts | 333° |
| 2026-04-24 09:14 | 55.95554 | -3.35506 | 110 ft | 13 kts | 317° |
| 2026-04-24 09:15 | 55.95540 | -3.35657 | 112 ft | 16 kts | 238° |
| 2026-04-24 09:15 | 55.95419 | -3.36014 | 109 ft | 64 kts | 240° |
| 2026-04-24 09:15 | 55.95082 | -3.37029 | 113 ft | 125 kts | 239° |
| 2026-04-24 09:15 | 55.94539 | -3.38580 | 242 ft | 160 kts | 239° |
| 2026-04-24 09:16 | 55.93945 | -3.40290 | 830 ft | 163 kts | 239° |
| 2026-04-24 09:16 | 55.93331 | -3.42034 | 1448 ft | 169 kts | 237° |
| 2026-04-24 09:16 | 55.92663 | -3.43968 | 1747 ft | 198 kts | 239° |
| 2026-04-24 09:16 | 55.91923 | -3.46133 | 2235 ft | 209 kts | 239° |
| 2026-04-24 09:17 | 55.91162 | -3.48336 | 2856 ft | 212 kts | 239° |
| 2026-04-24 09:17 | 55.90445 | -3.50679 | 3453 ft | 221 kts | 251° |
| 2026-04-24 09:17 | 55.90138 | -3.53520 | 3713 ft | 246 kts | 262° |
| 2026-04-24 09:17 | 55.89863 | -3.56623 | 4330 ft | 257 kts | 261° |
| 2026-04-24 09:18 | 55.89558 | -3.59797 | 5207 ft | 261 kts | 260° |
| 2026-04-24 09:18 | 55.89245 | -3.62969 | 6078 ft | 265 kts | 260° |
| 2026-04-24 09:18 | 55.88921 | -3.66224 | 6936 ft | 268 kts | 261° |
| 2026-04-24 09:18 | 55.88589 | -3.69538 | 7750 ft | 272 kts | 260° |
| 2026-04-24 09:19 | 55.88251 | -3.72889 | 8560 ft | 276 kts | 260° |
| 2026-04-24 09:19 | 55.87907 | -3.76278 | 9391 ft | 280 kts | 260° |
| 2026-04-24 09:19 | 55.87564 | -3.79676 | 10205 ft | 284 kts | 260° |
| 2026-04-24 09:19 | 55.87215 | -3.83179 | 10817 ft | 294 kts | 260° |
| 2026-04-24 09:20 | 55.86842 | -3.86941 | 11003 ft | 320 kts | 260° |
| 2026-04-24 09:20 | 55.86445 | -3.90923 | 11493 ft | 332 kts | 260° |
| 2026-04-24 09:20 | 55.86037 | -3.95013 | 12219 ft | 336 kts | 260° |
| 2026-04-24 09:20 | 55.85629 | -3.99080 | 13023 ft | 338 kts | 260° |
| 2026-04-24 09:21 | 55.85211 | -4.03225 | 13779 ft | 342 kts | 260° |
| 2026-04-24 09:21 | 55.84784 | -4.07446 | 14468 ft | 347 kts | 260° |
| 2026-04-24 09:21 | 55.84122 | -4.11611 | 15107 ft | 352 kts | 244° |
| 2026-04-24 09:21 | 55.82727 | -4.15141 | 15826 ft | 354 kts | 226° |
| 2026-04-24 09:22 | 55.80809 | -4.17911 | 16524 ft | 357 kts | 215° |
| 2026-04-24 09:22 | 55.78729 | -4.20388 | 17165 ft | 362 kts | 214° |
| 2026-04-24 09:22 | 55.76618 | -4.22907 | 17805 ft | 366 kts | 214° |
| 2026-04-24 09:22 | 55.74505 | -4.25486 | 18484 ft | 369 kts | 215° |
| 2026-04-24 09:23 | 55.72401 | -4.28081 | 19082 ft | 373 kts | 215° |
| 2026-04-24 09:23 | 55.70265 | -4.30725 | 19657 ft | 376 kts | 215° |
| 2026-04-24 09:23 | 55.68107 | -4.33398 | 20207 ft | 380 kts | 215° |
| 2026-04-24 09:23 | 55.65955 | -4.36062 | 20773 ft | 382 kts | 215° |
| 2026-04-24 09:24 | 55.63764 | -4.38769 | 21345 ft | 385 kts | 215° |
| 2026-04-24 09:24 | 55.61543 | -4.41509 | 21899 ft | 389 kts | 215° |
| 2026-04-24 09:24 | 55.59313 | -4.44256 | 22451 ft | 391 kts | 214° |
| 2026-04-24 09:24 | 55.57065 | -4.47021 | 23000 ft | 394 kts | 214° |
| 2026-04-24 09:25 | 55.54794 | -4.49809 | 23580 ft | 396 kts | 214° |
| 2026-04-24 09:25 | 55.52553 | -4.52557 | 24078 ft | 399 kts | 214° |
| 2026-04-24 09:25 | 55.50257 | -4.55369 | 24490 ft | 403 kts | 214° |
| 2026-04-24 09:25 | 55.47935 | -4.58209 | 24901 ft | 406 kts | 214° |
| 2026-04-24 09:26 | 55.45601 | -4.61058 | 25319 ft | 409 kts | 214° |
| 2026-04-24 09:26 | 55.43275 | -4.63894 | 25719 ft | 412 kts | 214° |
| 2026-04-24 09:26 | 55.40894 | -4.66794 | 26043 ft | 418 kts | 214° |
| 2026-04-24 09:26 | 55.38482 | -4.69728 | 26401 ft | 421 kts | 214° |
| 2026-04-24 09:27 | 55.36058 | -4.72671 | 26843 ft | 423 kts | 214° |
| 2026-04-24 09:27 | 55.33656 | -4.75583 | 27248 ft | 425 kts | 214° |
| 2026-04-24 09:27 | 55.31137 | -4.78410 | 27556 ft | 430 kts | 208° |
| 2026-04-24 09:27 | 55.28423 | -4.80485 | 27946 ft | 431 kts | 200° |
| 2026-04-24 09:28 | 55.25591 | -4.82278 | 28362 ft | 432 kts | 199° |
| 2026-04-24 09:28 | 55.22744 | -4.84041 | 28678 ft | 436 kts | 199° |
| 2026-04-24 09:28 | 55.19857 | -4.85830 | 29031 ft | 439 kts | 199° |
| 2026-04-24 09:28 | 55.17001 | -4.87615 | 29460 ft | 439 kts | 199° |
| 2026-04-24 09:29 | 55.14111 | -4.89436 | 29879 ft | 440 kts | 200° |
| 2026-04-24 09:29 | 55.11223 | -4.91267 | 30293 ft | 441 kts | 200° |
| 2026-04-24 09:29 | 55.08342 | -4.93098 | 30726 ft | 440 kts | 200° |
| 2026-04-24 09:29 | 55.05469 | -4.94926 | 31286 ft | 434 kts | 200° |
| 2026-04-24 09:30 | 55.02666 | -4.96707 | 31754 ft | 432 kts | 200° |
| 2026-04-24 09:30 | 54.99855 | -4.98491 | 32074 ft | 433 kts | 200° |
| 2026-04-24 09:30 | 54.97010 | -5.00293 | 32370 ft | 434 kts | 200° |
| 2026-04-24 09:30 | 54.94168 | -5.02091 | 32754 ft | 433 kts | 200° |
| 2026-04-24 09:31 | 54.91332 | -5.03881 | 33169 ft | 431 kts | 200° |
| 2026-04-24 09:31 | 54.88507 | -5.05662 | 33514 ft | 431 kts | 200° |
| 2026-04-24 09:31 | 54.85710 | -5.07422 | 33783 ft | 433 kts | 200° |
| 2026-04-24 09:31 | 54.82871 | -5.09205 | 34123 ft | 432 kts | 200° |
| 2026-04-24 09:32 | 54.80028 | -5.10989 | 34394 ft | 433 kts | 200° |
| 2026-04-24 09:32 | 54.77205 | -5.12758 | 34367 ft | 437 kts | 200° |
| 2026-04-24 09:32 | 54.71487 | -5.16333 | 34362 ft | 432 kts | 200° |
| 2026-04-24 09:33 | 54.65856 | -5.19843 | 34387 ft | 429 kts | 200° |
| 2026-04-24 09:33 | 54.60222 | -5.23344 | 34373 ft | 430 kts | 200° |
| 2026-04-24 09:34 | 54.54607 | -5.26826 | 34372 ft | 431 kts | 200° |
| 2026-04-24 09:34 | 54.48940 | -5.30344 | 34370 ft | 432 kts | 201° |
| 2026-04-24 09:35 | 54.43499 | -5.34709 | 34366 ft | 433 kts | 207° |
| 2026-04-24 09:35 | 54.38096 | -5.39416 | 34367 ft | 433 kts | 207° |
| 2026-04-24 09:36 | 54.32732 | -5.44017 | 34369 ft | 433 kts | 206° |
| 2026-04-24 09:36 | 54.28231 | -5.47815 | 34365 ft | 432 kts | 206° |
| 2026-04-24 09:37 | 54.21949 | -5.53076 | 34359 ft | 431 kts | 206° |
| 2026-04-24 09:37 | 54.17472 | -5.56814 | 34367 ft | 430 kts | 206° |
| 2026-04-24 09:38 | 54.12097 | -5.61291 | 34368 ft | 429 kts | 206° |
| 2026-04-24 09:38 | 54.06761 | -5.65725 | 34344 ft | 428 kts | 206° |
| 2026-04-24 09:39 | 54.01384 | -5.70181 | 34362 ft | 428 kts | 206° |
| 2026-04-24 09:39 | 53.96197 | -5.75009 | 34360 ft | 427 kts | 217° |
| 2026-04-24 09:40 | 53.91481 | -5.81200 | 34352 ft | 428 kts | 219° |
| 2026-04-24 09:40 | 53.86813 | -5.87434 | 34349 ft | 429 kts | 218° |
| 2026-04-24 09:41 | 53.82088 | -5.93637 | 34361 ft | 430 kts | 218° |
| 2026-04-24 09:41 | 53.77350 | -5.99782 | 34345 ft | 430 kts | 218° |
| 2026-04-24 09:42 | 53.72593 | -6.05914 | 34331 ft | 431 kts | 218° |
| 2026-04-24 09:42 | 53.67824 | -6.12041 | 34342 ft | 430 kts | 218° |
| 2026-04-24 09:43 | 53.65437 | -6.15102 | 34145 ft | 427 kts | 218° |
| 2026-04-24 09:43 | 53.63087 | -6.18110 | 33855 ft | 420 kts | 218° |
| 2026-04-24 09:43 | 53.60801 | -6.21033 | 33585 ft | 415 kts | 218° |
| 2026-04-24 09:43 | 53.58504 | -6.23965 | 33298 ft | 410 kts | 217° |
| 2026-04-24 09:44 | 53.56246 | -6.26846 | 33025 ft | 403 kts | 217° |
| 2026-04-24 09:44 | 53.54014 | -6.29688 | 32750 ft | 397 kts | 217° |
| 2026-04-24 09:44 | 53.51840 | -6.32452 | 32485 ft | 392 kts | 217° |
| 2026-04-24 09:44 | 53.49667 | -6.35213 | 32228 ft | 390 kts | 217° |
| 2026-04-24 09:45 | 53.47517 | -6.37939 | 31993 ft | 393 kts | 217° |
| 2026-04-24 09:45 | 53.45316 | -6.40728 | 31739 ft | 396 kts | 217° |
| 2026-04-24 09:45 | 53.43142 | -6.43479 | 31493 ft | 395 kts | 217° |
| 2026-04-24 09:45 | 53.40939 | -6.46262 | 31216 ft | 393 kts | 217° |
| 2026-04-24 09:46 | 53.38768 | -6.49001 | 30970 ft | 391 kts | 217° |
| 2026-04-24 09:46 | 53.36593 | -6.51742 | 30728 ft | 390 kts | 217° |
| 2026-04-24 09:46 | 53.34427 | -6.54468 | 30479 ft | 388 kts | 217° |
| 2026-04-24 09:46 | 53.32285 | -6.57160 | 30242 ft | 387 kts | 217° |
| 2026-04-24 09:47 | 53.30132 | -6.59863 | 29960 ft | 385 kts | 217° |
| 2026-04-24 09:47 | 53.27981 | -6.62560 | 29674 ft | 384 kts | 217° |
| 2026-04-24 09:47 | 53.25865 | -6.65209 | 29397 ft | 383 kts | 217° |
| 2026-04-24 09:47 | 53.23732 | -6.67877 | 29134 ft | 381 kts | 216° |
| 2026-04-24 09:48 | 53.21607 | -6.70531 | 28855 ft | 380 kts | 216° |
| 2026-04-24 09:48 | 53.19489 | -6.73173 | 28583 ft | 378 kts | 216° |
| 2026-04-24 09:48 | 53.17411 | -6.75761 | 28306 ft | 376 kts | 216° |
| 2026-04-24 09:48 | 53.15309 | -6.78377 | 28049 ft | 375 kts | 216° |
| 2026-04-24 09:49 | 53.13218 | -6.80974 | 27776 ft | 373 kts | 215° |
| 2026-04-24 09:49 | 53.11164 | -6.83524 | 27495 ft | 368 kts | 216° |
| 2026-04-24 09:49 | 53.09113 | -6.86068 | 27137 ft | 366 kts | 216° |
| 2026-04-24 09:49 | 53.07069 | -6.88598 | 26782 ft | 364 kts | 216° |
| 2026-04-24 09:50 | 53.05040 | -6.91105 | 26426 ft | 362 kts | 216° |
| 2026-04-24 09:50 | 53.03046 | -6.93568 | 26074 ft | 360 kts | 216° |
| 2026-04-24 09:50 | 53.01026 | -6.96059 | 25723 ft | 359 kts | 215° |
| 2026-04-24 09:50 | 52.99019 | -6.98533 | 25369 ft | 358 kts | 215° |
| 2026-04-24 09:51 | 52.97015 | -7.00999 | 25002 ft | 357 kts | 214° |
| 2026-04-24 09:51 | 52.95041 | -7.03426 | 24654 ft | 357 kts | 216° |
| 2026-04-24 09:51 | 52.93041 | -7.05883 | 24289 ft | 357 kts | 215° |
| 2026-04-24 09:51 | 52.91043 | -7.08334 | 23935 ft | 357 kts | 215° |
| 2026-04-24 09:52 | 52.89070 | -7.10752 | 23542 ft | 356 kts | 214° |
| 2026-04-24 09:52 | 52.87082 | -7.13185 | 23165 ft | 354 kts | 214° |
| 2026-04-24 09:52 | 52.85103 | -7.15603 | 22795 ft | 352 kts | 214° |
| 2026-04-24 09:52 | 52.83133 | -7.18008 | 22443 ft | 349 kts | 214° |
| 2026-04-24 09:53 | 52.81198 | -7.20367 | 22094 ft | 347 kts | 214° |
| 2026-04-24 09:53 | 52.79250 | -7.22739 | 21757 ft | 345 kts | 213° |
| 2026-04-24 09:53 | 52.77321 | -7.25086 | 21416 ft | 344 kts | 213° |
| 2026-04-24 09:53 | 52.75420 | -7.27396 | 21083 ft | 342 kts | 213° |
| 2026-04-24 09:54 | 52.73495 | -7.29732 | 20737 ft | 341 kts | 213° |
| 2026-04-24 09:54 | 52.71607 | -7.32021 | 20404 ft | 339 kts | 213° |
| 2026-04-24 09:54 | 52.69695 | -7.34337 | 20070 ft | 338 kts | 213° |
| 2026-04-24 09:54 | 52.67814 | -7.36613 | 19733 ft | 337 kts | 213° |
| 2026-04-24 09:55 | 52.65911 | -7.38912 | 19401 ft | 337 kts | 213° |
| 2026-04-24 09:55 | 52.64040 | -7.41170 | 19050 ft | 337 kts | 212° |
| 2026-04-24 09:55 | 52.56223 | -7.50588 | 17652 ft | 332 kts | 212° |
| 2026-04-24 09:55 | 52.46075 | -7.62774 | 15757 ft | 326 kts | 211° |
| 2026-04-24 09:56 | 52.36504 | -7.74147 | 14070 ft | 317 kts | 211° |
| 2026-04-24 09:56 | 52.22552 | -7.90647 | 11370 ft | 304 kts | 211° |
| 2026-04-24 09:56 | 52.17813 | -7.96224 | 10516 ft | 300 kts | 211° |
| 2026-04-24 09:56 | 52.16129 | -7.98196 | 10208 ft | 300 kts | 211° |
| 2026-04-24 09:57 | 52.14484 | -8.00190 | 10201 ft | 290 kts | 216° |
| 2026-04-24 09:57 | 52.13285 | -8.02934 | 9639 ft | 308 kts | 244° |
| 2026-04-24 09:57 | 52.12659 | -8.06254 | 9221 ft | 313 kts | 252° |
| 2026-04-24 09:57 | 52.12198 | -8.09724 | 8889 ft | 312 kts | 254° |
| 2026-04-24 09:58 | 52.11771 | -8.13209 | 8406 ft | 317 kts | 254° |
| 2026-04-24 09:58 | 52.11338 | -8.16689 | 8036 ft | 317 kts | 254° |
| 2026-04-24 09:58 | 52.10889 | -8.20193 | 7711 ft | 315 kts | 253° |
| 2026-04-24 09:58 | 52.10428 | -8.23687 | 7381 ft | 314 kts | 253° |
| 2026-04-24 09:59 | 52.09962 | -8.27159 | 7063 ft | 312 kts | 253° |
| 2026-04-24 09:59 | 52.09503 | -8.30557 | 6752 ft | 311 kts | 253° |
| 2026-04-24 09:59 | 52.09036 | -8.33983 | 6427 ft | 309 kts | 253° |
| 2026-04-24 09:59 | 52.08568 | -8.37388 | 6240 ft | 305 kts | 253° |
| 2026-04-24 10:00 | 52.08114 | -8.40708 | 6068 ft | 294 kts | 253° |
| 2026-04-24 10:00 | 52.07664 | -8.43884 | 5846 ft | 282 kts | 248° |
| 2026-04-24 10:00 | 52.07025 | -8.46808 | 5531 ft | 273 kts | 243° |
| 2026-04-24 10:00 | 52.06342 | -8.49659 | 5227 ft | 268 kts | 243° |
| 2026-04-24 10:01 | 52.05686 | -8.52457 | 4984 ft | 260 kts | 244° |
| 2026-04-24 10:01 | 52.05070 | -8.55135 | 4903 ft | 245 kts | 243° |
| 2026-04-24 10:01 | 52.04495 | -8.57666 | 4843 ft | 232 kts | 242° |
| 2026-04-24 10:01 | 52.03693 | -8.59809 | 4566 ft | 218 kts | 210° |
| 2026-04-24 10:02 | 52.02371 | -8.60448 | 4300 ft | 192 kts | 165° |
| 2026-04-24 10:02 | 52.01148 | -8.59630 | 3967 ft | 187 kts | 152° |
| 2026-04-24 10:02 | 51.99980 | -8.58787 | 3651 ft | 181 kts | 154° |
| 2026-04-24 10:02 | 51.98841 | -8.58025 | 3362 ft | 177 kts | 155° |
| 2026-04-24 10:03 | 51.97697 | -8.57286 | 3039 ft | 171 kts | 155° |
| 2026-04-24 10:03 | 51.96636 | -8.56555 | 2899 ft | 168 kts | 154° |
| 2026-04-24 10:03 | 51.95523 | -8.55855 | 2676 ft | 171 kts | 155° |
| 2026-04-24 10:03 | 51.94424 | -8.55198 | 2461 ft | 168 kts | 156° |
| 2026-04-24 10:04 | 51.93334 | -8.54556 | 2232 ft | 166 kts | 156° |
| 2026-04-24 10:04 | 51.92251 | -8.53918 | 1994 ft | 163 kts | 155° |
| 2026-04-24 10:04 | 51.91215 | -8.53302 | 1779 ft | 156 kts | 155° |
| 2026-04-24 10:04 | 51.90228 | -8.52720 | 1593 ft | 145 kts | 154° |
| 2026-04-24 10:05 | 51.89302 | -8.52171 | 1366 ft | 139 kts | 154° |
| 2026-04-24 10:05 | 51.88425 | -8.51653 | 1183 ft | 133 kts | 154° |
| 2026-04-24 10:05 | 51.87577 | -8.51153 | 1039 ft | 132 kts | 152° |
| 2026-04-24 10:05 | 51.86725 | -8.50634 | 891 ft | 131 kts | 152° |
| 2026-04-24 10:06 | 51.85870 | -8.50101 | 669 ft | 133 kts | 156° |
| 2026-04-24 10:06 | 51.84146 | -8.49104 | 478 ft | 118 kts | 157° |
| 2026-04-24 10:06 | 51.83569 | -8.48780 | 469 ft | 57 kts | 160° |
| 2026-04-24 10:07 | 51.83392 | -8.48686 | 468 ft | 0 kts | 123° |
| 2026-04-24 10:07 | 51.83401 | -8.48676 | 469 ft | 5 kts | 23° |
| 2026-04-24 10:07 | 51.83469 | -8.48712 | 465 ft | 17 kts | 340° |
| 2026-04-24 10:07 | 51.83643 | -8.48819 | 464 ft | 36 kts | 338° |
| 2026-04-24 10:08 | 51.83933 | -8.48960 | 469 ft | 51 kts | 341° |
| 2026-04-24 10:08 | 51.84250 | -8.49171 | 481 ft | 26 kts | 349° |
| 2026-04-24 10:08 | 51.84356 | -8.49005 | 482 ft | 12 kts | 49° |
| 2026-04-24 10:08 | 51.84415 | -8.48992 | 489 ft | 9 kts | 346° |
| 2026-04-24 10:09 | 51.84473 | -8.49024 | 487 ft | 9 kts | 336° |
| 2026-04-24 10:09 | 51.84527 | -8.49059 | 489 ft | 8 kts | 340° |
| 2026-04-24 10:09 | 51.84582 | -8.49092 | 491 ft | 8 kts | 340° |
| 2026-04-24 10:09 | 51.84634 | -8.49122 | 499 ft | 8 kts | 340° |
| 2026-04-24 10:10 | 51.84686 | -8.49153 | 501 ft | 8 kts | 340° |
| 2026-04-24 10:10 | 51.84731 | -8.49139 | 502 ft | 7 kts | 58° |
| 2026-04-24 10:10 | 51.84749 | -8.49067 | 502 ft | 7 kts | 69° |
| 2026-04-24 10:10 | 51.84758 | -8.49029 | 502 ft | 0 kts | 70° |